Terminal Aerodrome Forecast
Issued by NWS

Home | Current Version | Previous Version | Text Only | Print | Product List | Glossary On
Versions: 1 2 3 4 5 6 7 8 9 10 11 12 13 14
000
FTUS46 KMFR 240500
TAFLMT
TAF
KLMT 240538Z 2406/2506 21009KT P6SM -SHRA SCT035 OVC040
     FM241000 20011G19KT P6SM -SHRA SCT025 OVC050
     FM241500 23016G25KT P6SM VCSH BKN035 OVC060
     FM241900 25024G33KT P6SM SCT030 BKN070
     FM250200 27009KT P6SM -SHRA SCT020 OVC035=

USA.gov is the U.S. government's official web portal to all federal, state and local government web resources and services.